sensor_id;sensor_type;location;lat;lon;timestamp;pressure;altitude;pressure_sealevel;temperature;humidity
55113;BME280;41006;50.920;3.456;2023-07-13T00:00:22;76074.22;;;-147.36;90.48
55113;BME280;41006;50.920;3.456;2023-07-13T00:00:53;76076.25;;;-147.36;90.67
55113;BME280;41006;50.920;3.456;2023-07-13T00:01:23;76080.28;;;-147.36;90.56
55113;BME280;41006;50.920;3.456;2023-07-13T00:01:56;76070.19;;;-147.36;90.64
55113;BME280;41006;50.920;3.456;2023-07-13T00:02:26;76068.16;;;-147.36;90.74
55113;BME280;41006;50.920;3.456;2023-07-13T00:03:02;76066.13;;;-147.36;90.69
55113;BME280;41006;50.920;3.456;2023-07-13T00:03:32;76070.19;;;-147.36;90.33
55113;BME280;41006;50.920;3.456;2023-07-13T00:04:05;76076.25;;;-147.36;90.68
55113;BME280;41006;50.920;3.456;2023-07-13T00:04:36;76068.16;;;-147.36;90.97
55113;BME280;41006;50.920;3.456;2023-07-13T00:05:09;76070.19;;;-147.36;91.02
55113;BME280;41006;50.920;3.456;2023-07-13T00:05:42;76082.31;;;-147.36;91.39
55113;BME280;41006;50.920;3.456;2023-07-13T00:06:12;76088.34;;;-147.36;91.43
55113;BME280;41006;50.920;3.456;2023-07-13T00:06:44;76080.28;;;-147.36;91.62
55113;BME280;41006;50.920;3.456;2023-07-13T00:07:14;76082.31;;;-147.36;91.80
55113;BME280;41006;50.920;3.456;2023-07-13T00:07:48;76076.25;;;-147.36;91.90
55113;BME280;41006;50.920;3.456;2023-07-13T00:08:18;76066.13;;;-147.36;91.57
55113;BME280;41006;50.920;3.456;2023-07-13T00:08:49;76068.16;;;-147.36;91.67
55113;BME280;41006;50.920;3.456;2023-07-13T00:09:20;76070.19;;;-147.36;91.55
55113;BME280;41006;50.920;3.456;2023-07-13T00:09:56;76076.25;;;-147.36;91.77
55113;BME280;41006;50.920;3.456;2023-07-13T00:10:26;76080.28;;;-147.36;91.90
55113;BME280;41006;50.920;3.456;2023-07-13T00:10:57;76084.31;;;-147.36;92.13
55113;BME280;41006;50.920;3.456;2023-07-13T00:11:27;76088.34;;;-147.36;92.10
55113;BME280;41006;50.920;3.456;2023-07-13T00:11:57;76092.41;;;-147.36;92.27
55113;BME280;41006;50.920;3.456;2023-07-13T00:12:34;76092.41;;;-147.36;92.38
55113;BME280;41006;50.920;3.456;2023-07-13T00:13:05;76100.47;;;-147.36;92.79
55113;BME280;41006;50.920;3.456;2023-07-13T00:13:35;76100.47;;;-147.36;92.87
55113;BME280;41006;50.920;3.456;2023-07-13T00:14:10;76094.41;;;-147.36;93.05
55113;BME280;41006;50.920;3.456;2023-07-13T00:14:43;76090.38;;;-147.36;92.92
55113;BME280;41006;50.920;3.456;2023-07-13T00:15:22;76094.41;;;-147.36;92.93
55113;BME280;41006;50.920;3.456;2023-07-13T00:15:53;76092.41;;;-147.36;93.13
55113;BME280;41006;50.920;3.456;2023-07-13T00:16:26;76096.44;;;-147.36;93.38
55113;BME280;41006;50.920;3.456;2023-07-13T00:16:59;76090.38;;;-147.36;93.49
55113;BME280;41006;50.920;3.456;2023-07-13T00:17:30;76090.38;;;-147.36;93.32
55113;BME280;41006;50.920;3.456;2023-07-13T00:18:04;76090.38;;;-147.36;93.15
55113;BME280;41006;50.920;3.456;2023-07-13T00:18:34;76092.41;;;-147.36;93.11
55113;BME280;41006;50.920;3.456;2023-07-13T00:19:07;76096.44;;;-147.36;93.35
55113;BME280;41006;50.920;3.456;2023-07-13T00:19:42;76090.38;;;-147.36;93.56
55113;BME280;41006;50.920;3.456;2023-07-13T00:20:16;76098.47;;;-147.36;93.47
55113;BME280;41006;50.920;3.456;2023-07-13T00:20:46;76094.41;;;-147.36;93.54
55113;BME280;41006;50.920;3.456;2023-07-13T00:21:17;76094.41;;;-147.36;93.62
55113;BME280;41006;50.920;3.456;2023-07-13T00:21:50;76090.38;;;-147.36;93.60
55113;BME280;41006;50.920;3.456;2023-07-13T00:22:28;76090.38;;;-147.36;93.61
55113;BME280;41006;50.920;3.456;2023-07-13T00:22:58;76088.34;;;-147.36;93.47
55113;BME280;41006;50.920;3.456;2023-07-13T00:23:29;76092.41;;;-147.36;93.65
55113;BME280;41006;50.920;3.456;2023-07-13T00:23:59;76092.41;;;-147.36;93.75
55113;BME280;41006;50.920;3.456;2023-07-13T00:24:33;76092.41;;;-147.36;93.60
55113;BME280;41006;50.920;3.456;2023-07-13T00:25:06;76096.44;;;-147.36;93.77
55113;BME280;41006;50.920;3.456;2023-07-13T00:25:37;76094.41;;;-147.36;94.05
55113;BME280;41006;50.920;3.456;2023-07-13T00:26:11;76086.34;;;-147.36;93.82
55113;BME280;41006;50.920;3.456;2023-07-13T00:26:42;76076.25;;;-147.36;93.53
55113;BME280;41006;50.920;3.456;2023-07-13T00:27:18;76082.31;;;-147.36;93.35
55113;BME280;41006;50.920;3.456;2023-07-13T00:27:49;76082.31;;;-147.36;93.23
55113;BME280;41006;50.920;3.456;2023-07-13T00:28:19;76068.16;;;-147.36;93.31
55113;BME280;41006;50.920;3.456;2023-07-13T00:28:50;76068.16;;;-147.36;93.09
55113;BME280;41006;50.920;3.456;2023-07-13T00:29:23;76078.25;;;-147.36;93.05
55113;BME280;41006;50.920;3.456;2023-07-13T00:29:53;76084.31;;;-147.36;93.35
55113;BME280;41006;50.920;3.456;2023-07-13T00:30:26;76084.31;;;-147.36;93.45
55113;BME280;41006;50.920;3.456;2023-07-13T00:31:01;76084.31;;;-147.36;93.51
55113;BME280;41006;50.920;3.456;2023-07-13T00:31:32;76090.38;;;-147.36;93.67
55113;BME280;41006;50.920;3.456;2023-07-13T00:32:03;76094.41;;;-147.36;93.96
55113;BME280;41006;50.920;3.456;2023-07-13T00:32:40;76100.47;;;-147.36;94.11
55113;BME280;41006;50.920;3.456;2023-07-13T00:33:13;76102.50;;;-147.36;93.99
55113;BME280;41006;50.920;3.456;2023-07-13T00:33:43;76096.44;;;-147.36;94.36
55113;BME280;41006;50.920;3.456;2023-07-13T00:34:16;76104.53;;;-147.36;94.34
55113;BME280;41006;50.920;3.456;2023-07-13T00:34:52;76106.53;;;-147.36;94.62
55113;BME280;41006;50.920;3.456;2023-07-13T00:35:22;76100.47;;;-147.36;94.37
55113;BME280;41006;50.920;3.456;2023-07-13T00:35:54;76096.44;;;-147.36;94.48
55113;BME280;41006;50.920;3.456;2023-07-13T00:36:24;76104.53;;;-147.36;94.29
55113;BME280;41006;50.920;3.456;2023-07-13T00:36:57;76102.50;;;-147.36;94.49
55113;BME280;41006;50.920;3.456;2023-07-13T00:37:30;76096.44;;;-147.36;94.44
55113;BME280;41006;50.920;3.456;2023-07-13T00:38:03;76112.59;;;-147.36;94.62
55113;BME280;41006;50.920;3.456;2023-07-13T00:38:35;76104.53;;;-147.36;94.70
55113;BME280;41006;50.920;3.456;2023-07-13T00:39:07;76104.53;;;-147.36;94.78
55113;BME280;41006;50.920;3.456;2023-07-13T00:39:42;76102.50;;;-147.36;94.91
55113;BME280;41006;50.920;3.456;2023-07-13T00:40:17;76104.53;;;-147.36;94.95
55113;BME280;41006;50.920;3.456;2023-07-13T00:40:47;76094.41;;;-147.36;94.97
55113;BME280;41006;50.920;3.456;2023-07-13T00:41:20;76096.44;;;-147.36;94.64
55113;BME280;41006;50.920;3.456;2023-07-13T00:41:51;76102.50;;;-147.36;94.58
55113;BME280;41006;50.920;3.456;2023-07-13T00:42:22;76098.47;;;-147.36;94.55
55113;BME280;41006;50.920;3.456;2023-07-13T00:42:59;76102.50;;;-147.36;95.00
55113;BME280;41006;50.920;3.456;2023-07-13T00:43:32;76114.63;;;-147.36;95.07
55113;BME280;41006;50.920;3.456;2023-07-13T00:44:05;76106.53;;;-147.36;95.24
55113;BME280;41006;50.920;3.456;2023-07-13T00:44:40;76108.56;;;-147.36;95.15
55113;BME280;41006;50.920;3.456;2023-07-13T00:46:21;76106.53;;;-147.36;95.73
55113;BME280;41006;50.920;3.456;2023-07-13T00:46:55;76112.59;;;-147.36;95.47
55113;BME280;41006;50.920;3.456;2023-07-13T00:47:25;76106.53;;;-147.36;95.68
55113;BME280;41006;50.920;3.456;2023-07-13T00:47:56;76104.53;;;-147.36;95.52
55113;BME280;41006;50.920;3.456;2023-07-13T00:48:31;76108.56;;;-147.36;95.24
55113;BME280;41006;50.920;3.456;2023-07-13T00:49:04;76104.53;;;-147.36;95.64
55113;BME280;41006;50.920;3.456;2023-07-13T00:49:36;76112.59;;;-147.36;95.82
55113;BME280;41006;50.920;3.456;2023-07-13T00:50:10;76104.53;;;-147.36;95.85
55113;BME280;41006;50.920;3.456;2023-07-13T00:50:44;76116.66;;;-147.36;96.01
55113;BME280;41006;50.920;3.456;2023-07-13T00:52:08;76116.66;;;-147.36;96.16
55113;BME280;41006;50.920;3.456;2023-07-13T00:52:18;76114.63;;;-147.36;96.26
55113;BME280;41006;50.920;3.456;2023-07-13T00:52:54;76120.69;;;-147.36;96.46
55113;BME280;41006;50.920;3.456;2023-07-13T00:53:32;76122.72;;;-147.36;96.44
55113;BME280;41006;50.920;3.456;2023-07-13T00:54:11;76120.69;;;-147.36;96.79
55113;BME280;41006;50.920;3.456;2023-07-13T00:54:45;76124.72;;;-147.36;96.70
55113;BME280;41006;50.920;3.456;2023-07-13T00:55:19;76120.69;;;-147.36;97.06
55113;BME280;41006;50.920;3.456;2023-07-13T00:55:55;76132.81;;;-147.36;97.22
55113;BME280;41006;50.920;3.456;2023-07-13T00:56:28;76128.75;;;-147.36;97.46
55113;BME280;41006;50.920;3.456;2023-07-13T00:57:03;76132.81;;;-147.36;97.43
55113;BME280;41006;50.920;3.456;2023-07-13T00:57:39;76134.81;;;-147.36;97.52
55113;BME280;41006;50.920;3.456;2023-07-13T00:58:12;76122.72;;;-147.36;97.64
55113;BME280;41006;50.920;3.456;2023-07-13T00:58:45;76128.75;;;-147.36;97.59
55113;BME280;41006;50.920;3.456;2023-07-13T00:59:22;76130.78;;;-147.36;97.61
55113;BME280;41006;50.920;3.456;2023-07-13T00:59:58;76136.84;;;-147.36;97.94
55113;BME280;41006;50.920;3.456;2023-07-13T01:00:40;76132.81;;;-147.36;98.01
55113;BME280;41006;50.920;3.456;2023-07-13T01:01:13;76130.78;;;-147.36;98.10
55113;BME280;41006;50.920;3.456;2023-07-13T01:01:46;76134.81;;;-147.36;98.24
55113;BME280;41006;50.920;3.456;2023-07-13T01:02:21;76132.81;;;-147.36;98.19
55113;BME280;41006;50.920;3.456;2023-07-13T01:02:57;76136.84;;;-147.36;98.01
55113;BME280;41006;50.920;3.456;2023-07-13T01:03:29;76128.75;;;-147.36;98.25
55113;BME280;41006;50.920;3.456;2023-07-13T01:04:03;76130.78;;;-147.36;97.94
55113;BME280;41006;50.920;3.456;2023-07-13T01:04:40;76132.81;;;-147.36;97.92
55113;BME280;41006;50.920;3.456;2023-07-13T01:05:16;76136.84;;;-147.36;98.28
55113;BME280;41006;50.920;3.456;2023-07-13T01:05:52;76136.84;;;-147.36;98.47
55113;BME280;41006;50.920;3.456;2023-07-13T01:06:24;76134.81;;;-147.36;98.30
55113;BME280;41006;50.920;3.456;2023-07-13T01:06:54;76130.78;;;-147.36;98.35
55113;BME280;41006;50.920;3.456;2023-07-13T01:07:25;76136.84;;;-147.36;98.12
55113;BME280;41006;50.920;3.456;2023-07-13T01:08:01;76144.94;;;-147.36;98.51
55113;BME280;41006;50.920;3.456;2023-07-13T01:08:34;76140.88;;;-147.36;98.93
55113;BME280;41006;50.920;3.456;2023-07-13T01:09:08;76136.84;;;-147.36;98.86
55113;BME280;41006;50.920;3.456;2023-07-13T01:09:41;76136.84;;;-147.36;98.65
55113;BME280;41006;50.920;3.456;2023-07-13T01:10:19;76132.81;;;-147.36;98.86
55113;BME280;41006;50.920;3.456;2023-07-13T01:10:57;76130.78;;;-147.36;98.83
55113;BME280;41006;50.920;3.456;2023-07-13T01:11:31;76140.88;;;-147.36;98.81
55113;BME280;41006;50.920;3.456;2023-07-13T01:12:01;76138.88;;;-147.36;98.82
55113;BME280;41006;50.920;3.456;2023-07-13T01:12:34;76144.94;;;-147.36;98.70
55113;BME280;41006;50.920;3.456;2023-07-13T01:13:10;76144.94;;;-147.36;99.21
55113;BME280;41006;50.920;3.456;2023-07-13T01:13:43;76146.94;;;-147.36;99.31
55113;BME280;41006;50.920;3.456;2023-07-13T01:14:14;76140.88;;;-147.36;99.06
55113;BME280;41006;50.920;3.456;2023-07-13T01:14:44;76140.88;;;-147.36;99.09
55113;BME280;41006;50.920;3.456;2023-07-13T01:15:44;76132.81;;;-147.36;98.87
55113;BME280;41006;50.920;3.456;2023-07-13T01:16:28;76136.84;;;-147.36;98.65
55113;BME280;41006;50.920;3.456;2023-07-13T01:17:00;76138.88;;;-147.36;98.88
55113;BME280;41006;50.920;3.456;2023-07-13T01:17:31;76144.94;;;-147.36;98.83
55113;BME280;41006;50.920;3.456;2023-07-13T01:18:08;76151.00;;;-147.36;99.08
55113;BME280;41006;50.920;3.456;2023-07-13T01:18:39;76157.06;;;-147.36;99.08
55113;BME280;41006;50.920;3.456;2023-07-13T01:20:11;76144.94;;;-147.36;99.18
55113;BME280;41006;50.920;3.456;2023-07-13T01:20:56;76144.94;;;-147.36;99.09
55113;BME280;41006;50.920;3.456;2023-07-13T01:21:32;76142.91;;;-147.36;99.13
55113;BME280;41006;50.920;3.456;2023-07-13T01:22:09;76142.91;;;-147.36;99.11
55113;BME280;41006;50.920;3.456;2023-07-13T01:22:39;76140.88;;;-147.36;99.08
55113;BME280;41006;50.920;3.456;2023-07-13T01:23:13;76148.97;;;-147.36;98.95
55113;BME280;41006;50.920;3.456;2023-07-13T01:23:48;76136.84;;;-147.36;99.20
55113;BME280;41006;50.920;3.456;2023-07-13T01:24:21;76148.97;;;-147.36;99.17
55113;BME280;41006;50.920;3.456;2023-07-13T01:24:52;76148.97;;;-147.36;99.24
55113;BME280;41006;50.920;3.456;2023-07-13T01:25:25;76144.94;;;-147.36;99.33
55113;BME280;41006;50.920;3.456;2023-07-13T01:26:00;76153.00;;;-147.36;99.39
55113;BME280;41006;50.920;3.456;2023-07-13T01:26:33;76159.06;;;-147.36;99.24
55113;BME280;41006;50.920;3.456;2023-07-13T01:27:05;76155.03;;;-147.36;99.39
55113;BME280;41006;50.920;3.456;2023-07-13T01:27:42;76161.09;;;-147.36;99.59
55113;BME280;41006;50.920;3.456;2023-07-13T01:28:15;76165.13;;;-147.36;99.86
55113;BME280;41006;50.920;3.456;2023-07-13T01:28:47;76167.16;;;-147.36;99.85
55113;BME280;41006;50.920;3.456;2023-07-13T01:29:20;76171.19;;;-147.36;100.00
55113;BME280;41006;50.920;3.456;2023-07-13T01:29:56;76177.25;;;-147.36;100.00
55113;BME280;41006;50.920;3.456;2023-07-13T01:30:35;76183.31;;;-147.36;100.00
55113;BME280;41006;50.920;3.456;2023-07-13T01:31:06;76173.22;;;-147.36;100.00
55113;BME280;41006;50.920;3.456;2023-07-13T01:31:38;76167.16;;;-147.36;100.00
55113;BME280;41006;50.920;3.456;2023-07-13T01:32:11;76167.16;;;-147.36;100.00
55113;BME280;41006;50.920;3.456;2023-07-13T01:32:42;76167.16;;;-147.36;100.00
55113;BME280;41006;50.920;3.456;2023-07-13T01:33:16;76171.19;;;-147.36;100.00
55113;BME280;41006;50.920;3.456;2023-07-13T01:33:48;76179.28;;;-147.36;100.00
55113;BME280;41006;50.920;3.456;2023-07-13T01:34:23;76177.25;;;-147.36;100.00
55113;BME280;41006;50.920;3.456;2023-07-13T01:34:54;76177.25;;;-147.36;100.00
55113;BME280;41006;50.920;3.456;2023-07-13T01:35:27;76171.19;;;-147.36;100.00
55113;BME280;41006;50.920;3.456;2023-07-13T01:36:05;76171.19;;;-147.36;100.00
55113;BME280;41006;50.920;3.456;2023-07-13T01:36:38;76177.25;;;-147.36;100.00
55113;BME280;41006;50.920;3.456;2023-07-13T01:37:09;76181.28;;;-147.36;100.00
55113;BME280;41006;50.920;3.456;2023-07-13T01:37:40;76169.16;;;-147.36;100.00
55113;BME280;41006;50.920;3.456;2023-07-13T01:38:14;76173.22;;;-147.36;100.00
55113;BME280;41006;50.920;3.456;2023-07-13T01:38:44;76165.13;;;-147.36;100.00
55113;BME280;41006;50.920;3.456;2023-07-13T01:39:17;76173.22;;;-147.36;100.00
55113;BME280;41006;50.920;3.456;2023-07-13T01:39:53;76171.19;;;-147.36;100.00
55113;BME280;41006;50.920;3.456;2023-07-13T01:40:25;76177.25;;;-147.36;100.00
55113;BME280;41006;50.920;3.456;2023-07-13T01:41:00;76177.25;;;-147.36;100.00
55113;BME280;41006;50.920;3.456;2023-07-13T01:41:31;76177.25;;;-147.36;100.00
55113;BME280;41006;50.920;3.456;2023-07-13T01:42:04;76173.22;;;-147.36;100.00
55113;BME280;41006;50.920;3.456;2023-07-13T01:42:37;76165.13;;;-147.36;100.00
55113;BME280;41006;50.920;3.456;2023-07-13T01:43:07;76175.22;;;-147.36;100.00
55113;BME280;41006;50.920;3.456;2023-07-13T01:43:43;76165.13;;;-147.36;100.00
55113;BME280;41006;50.920;3.456;2023-07-13T01:44:16;76171.19;;;-147.36;100.00
55113;BME280;41006;50.920;3.456;2023-07-13T01:44:51;76173.22;;;-147.36;100.00
55113;BME280;41006;50.920;3.456;2023-07-13T01:45:24;76173.22;;;-147.36;100.00
55113;BME280;41006;50.920;3.456;2023-07-13T01:45:54;76175.22;;;-147.36;100.00
55113;BME280;41006;50.920;3.456;2023-07-13T01:46:27;76181.28;;;-147.36;100.00
55113;BME280;41006;50.920;3.456;2023-07-13T01:47:00;76173.22;;;-147.36;100.00
55113;BME280;41006;50.920;3.456;2023-07-13T01:47:31;76177.25;;;-147.36;100.00
55113;BME280;41006;50.920;3.456;2023-07-13T01:48:04;76177.25;;;-147.36;100.00
55113;BME280;41006;50.920;3.456;2023-07-13T01:48:36;76167.16;;;-147.36;100.00
55113;BME280;41006;50.920;3.456;2023-07-13T01:49:09;76181.28;;;-147.36;100.00
55113;BME280;41006;50.920;3.456;2023-07-13T01:49:42;76167.16;;;-147.36;100.00
55113;BME280;41006;50.920;3.456;2023-07-13T01:50:15;76177.25;;;-147.36;100.00
55113;BME280;41006;50.920;3.456;2023-07-13T01:50:50;76173.22;;;-147.36;100.00
55113;BME280;41006;50.920;3.456;2023-07-13T01:51:23;76169.16;;;-147.36;100.00
55113;BME280;41006;50.920;3.456;2023-07-13T01:51:56;76175.22;;;-147.36;100.00
55113;BME280;41006;50.920;3.456;2023-07-13T01:52:29;76181.28;;;-147.36;100.00
55113;BME280;41006;50.920;3.456;2023-07-13T01:53:00;76173.22;;;-147.36;100.00
55113;BME280;41006;50.920;3.456;2023-07-13T01:53:31;76177.25;;;-147.36;100.00
55113;BME280;41006;50.920;3.456;2023-07-13T01:54:02;76177.25;;;-147.36;100.00
55113;BME280;41006;50.920;3.456;2023-07-13T01:54:32;76177.25;;;-147.36;100.00
55113;BME280;41006;50.920;3.456;2023-07-13T01:55:07;76181.28;;;-147.36;100.00
55113;BME280;41006;50.920;3.456;2023-07-13T01:55:37;76185.34;;;-147.36;100.00
55113;BME280;41006;50.920;3.456;2023-07-13T01:56:15;76181.28;;;-147.36;100.00
55113;BME280;41006;50.920;3.456;2023-07-13T01:56:45;76185.34;;;-147.36;100.00
55113;BME280;41006;50.920;3.456;2023-07-13T01:57:18;76183.31;;;-147.36;100.00
55113;BME280;41006;50.920;3.456;2023-07-13T01:57:49;76181.28;;;-147.36;100.00
55113;BME280;41006;50.920;3.456;2023-07-13T01:58:21;76185.34;;;-147.36;100.00
55113;BME280;41006;50.920;3.456;2023-07-13T01:58:52;76181.28;;;-147.36;100.00
55113;BME280;41006;50.920;3.456;2023-07-13T01:59:29;76189.38;;;-147.36;100.00
55113;BME280;41006;50.920;3.456;2023-07-13T02:00:05;76197.44;;;-147.36;100.00
55113;BME280;41006;50.920;3.456;2023-07-13T02:00:39;76189.38;;;-147.36;100.00
55113;BME280;41006;50.920;3.456;2023-07-13T02:01:09;76195.44;;;-147.36;100.00
55113;BME280;41006;50.920;3.456;2023-07-13T02:01:40;76197.44;;;-147.36;100.00
55113;BME280;41006;50.920;3.456;2023-07-13T02:02:15;76197.44;;;-147.36;100.00
55113;BME280;41006;50.920;3.456;2023-07-13T02:02:48;76193.41;;;-147.36;100.00
55113;BME280;41006;50.920;3.456;2023-07-13T02:03:19;76197.44;;;-147.36;100.00
55113;BME280;41006;50.920;3.456;2023-07-13T02:03:50;76195.44;;;-147.36;100.00
55113;BME280;41006;50.920;3.456;2023-07-13T02:04:22;76185.34;;;-147.36;100.00
55113;BME280;41006;50.920;3.456;2023-07-13T02:04:53;76197.44;;;-147.36;100.00
55113;BME280;41006;50.920;3.456;2023-07-13T02:05:23;76201.50;;;-147.36;100.00
55113;BME280;41006;50.920;3.456;2023-07-13T02:05:56;76201.50;;;-147.36;100.00
55113;BME280;41006;50.920;3.456;2023-07-13T02:06:29;76199.47;;;-147.36;100.00
55113;BME280;41006;50.920;3.456;2023-07-13T02:07:01;76197.44;;;-147.36;100.00
55113;BME280;41006;50.920;3.456;2023-07-13T02:07:37;76189.38;;;-147.36;100.00
55113;BME280;41006;50.920;3.456;2023-07-13T02:08:09;76189.38;;;-147.36;100.00
55113;BME280;41006;50.920;3.456;2023-07-13T02:08:43;76191.41;;;-147.36;100.00
55113;BME280;41006;50.920;3.456;2023-07-13T02:09:18;76189.38;;;-147.36;100.00
55113;BME280;41006;50.920;3.456;2023-07-13T02:09:51;76177.25;;;-147.36;100.00
55113;BME280;41006;50.920;3.456;2023-07-13T02:10:23;76185.34;;;-147.36;100.00
55113;BME280;41006;50.920;3.456;2023-07-13T02:10:56;76183.31;;;-147.36;100.00
55113;BME280;41006;50.920;3.456;2023-07-13T02:11:26;76193.41;;;-147.36;100.00
55113;BME280;41006;50.920;3.456;2023-07-13T02:12:02;76189.38;;;-147.36;100.00
55113;BME280;41006;50.920;3.456;2023-07-13T02:12:36;76199.47;;;-147.36;100.00
55113;BME280;41006;50.920;3.456;2023-07-13T02:13:07;76199.47;;;-147.36;100.00
55113;BME280;41006;50.920;3.456;2023-07-13T02:13:37;76203.50;;;-147.36;100.00
55113;BME280;41006;50.920;3.456;2023-07-13T02:14:10;76205.53;;;-147.36;100.00
55113;BME280;41006;50.920;3.456;2023-07-13T02:14:43;76201.50;;;-147.36;100.00
55113;BME280;41006;50.920;3.456;2023-07-13T02:15:17;76203.50;;;-147.36;100.00
55113;BME280;41006;50.920;3.456;2023-07-13T02:15:50;76207.56;;;-147.36;100.00
55113;BME280;41006;50.920;3.456;2023-07-13T02:16:25;76205.53;;;-147.36;100.00
55113;BME280;41006;50.920;3.456;2023-07-13T02:17:00;76211.59;;;-147.36;100.00
55113;BME280;41006;50.920;3.456;2023-07-13T02:17:30;76205.53;;;-147.36;100.00
55113;BME280;41006;50.920;3.456;2023-07-13T02:18:03;76205.53;;;-147.36;100.00
55113;BME280;41006;50.920;3.456;2023-07-13T02:18:34;76207.56;;;-147.36;100.00
55113;BME280;41006;50.920;3.456;2023-07-13T02:19:04;76205.53;;;-147.36;100.00
55113;BME280;41006;50.920;3.456;2023-07-13T02:19:41;76209.56;;;-147.36;100.00
55113;BME280;41006;50.920;3.456;2023-07-13T02:20:11;76205.53;;;-147.36;100.00
55113;BME280;41006;50.920;3.456;2023-07-13T02:20:44;76197.44;;;-147.36;100.00
55113;BME280;41006;50.920;3.456;2023-07-13T02:21:14;76207.56;;;-147.36;100.00
55113;BME280;41006;50.920;3.456;2023-07-13T02:21:47;76213.63;;;-147.36;100.00
55113;BME280;41006;50.920;3.456;2023-07-13T02:22:18;76213.63;;;-147.36;100.00
55113;BME280;41006;50.920;3.456;2023-07-13T02:22:48;76217.66;;;-147.36;100.00
55113;BME280;41006;50.920;3.456;2023-07-13T02:23:19;76213.63;;;-147.36;100.00
55113;BME280;41006;50.920;3.456;2023-07-13T02:23:49;76217.66;;;-147.36;100.00
55113;BME280;41006;50.920;3.456;2023-07-13T02:24:20;76203.50;;;-147.36;100.00
55113;BME280;41006;50.920;3.456;2023-07-13T02:24:53;76197.44;;;-147.36;100.00
55113;BME280;41006;50.920;3.456;2023-07-13T02:25:26;76199.47;;;-147.36;100.00
55113;BME280;41006;50.920;3.456;2023-07-13T02:25:58;76201.50;;;-147.36;100.00
55113;BME280;41006;50.920;3.456;2023-07-13T02:26:32;76193.41;;;-147.36;100.00
55113;BME280;41006;50.920;3.456;2023-07-13T02:27:08;76181.28;;;-147.36;100.00
55113;BME280;41006;50.920;3.456;2023-07-13T02:27:38;76179.28;;;-147.36;100.00
55113;BME280;41006;50.920;3.456;2023-07-13T02:28:11;76181.28;;;-147.36;100.00
55113;BME280;41006;50.920;3.456;2023-07-13T02:28:47;76183.31;;;-147.36;100.00
55113;BME280;41006;50.920;3.456;2023-07-13T02:29:17;76185.34;;;-147.36;100.00
55113;BME280;41006;50.920;3.456;2023-07-13T02:29:50;76193.41;;;-147.36;100.00
55113;BME280;41006;50.920;3.456;2023-07-13T02:30:21;76185.34;;;-147.36;100.00
55113;BME280;41006;50.920;3.456;2023-07-13T02:31:06;76193.41;;;-147.36;100.00
55113;BME280;41006;50.920;3.456;2023-07-13T02:31:37;76199.47;;;-147.36;100.00
55113;BME280;41006;50.920;3.456;2023-07-13T02:32:10;76199.47;;;-147.36;100.00
55113;BME280;41006;50.920;3.456;2023-07-13T02:32:40;76199.47;;;-147.36;100.00
55113;BME280;41006;50.920;3.456;2023-07-13T02:33:18;76195.44;;;-147.36;100.00
55113;BME280;41006;50.920;3.456;2023-07-13T02:33:51;76189.38;;;-147.36;100.00
55113;BME280;41006;50.920;3.456;2023-07-13T02:34:21;76205.53;;;-147.36;100.00
55113;BME280;41006;50.920;3.456;2023-07-13T02:34:54;76197.44;;;-147.36;100.00
55113;BME280;41006;50.920;3.456;2023-07-13T02:35:26;76205.53;;;-147.36;100.00
55113;BME280;41006;50.920;3.456;2023-07-13T02:35:57;76209.56;;;-147.36;100.00
55113;BME280;41006;50.920;3.456;2023-07-13T02:36:27;76219.69;;;-147.36;100.00
55113;BME280;41006;50.920;3.456;2023-07-13T02:36:57;76227.75;;;-147.36;100.00
55113;BME280;41006;50.920;3.456;2023-07-13T02:37:28;76227.75;;;-147.36;100.00
55113;BME280;41006;50.920;3.456;2023-07-13T02:38:00;76227.75;;;-147.36;100.00
55113;BME280;41006;50.920;3.456;2023-07-13T02:38:36;76227.75;;;-147.36;100.00
55113;BME280;41006;50.920;3.456;2023-07-13T02:39:13;76233.81;;;-147.36;100.00
55113;BME280;41006;50.920;3.456;2023-07-13T02:39:48;76221.69;;;-147.36;100.00
55113;BME280;41006;50.920;3.456;2023-07-13T02:40:18;76227.75;;;-147.36;100.00
55113;BME280;41006;50.920;3.456;2023-07-13T02:40:48;76225.75;;;-147.36;100.00
55113;BME280;41006;50.920;3.456;2023-07-13T02:41:24;76237.88;;;-147.36;100.00
55113;BME280;41006;50.920;3.456;2023-07-13T02:41:57;76241.91;;;-147.36;100.00
55113;BME280;41006;50.920;3.456;2023-07-13T02:42:27;76233.81;;;-147.36;100.00
55113;BME280;41006;50.920;3.456;2023-07-13T02:43:00;76237.88;;;-147.36;100.00
55113;BME280;41006;50.920;3.456;2023-07-13T02:43:33;76217.66;;;-147.36;100.00
55113;BME280;41006;50.920;3.456;2023-07-13T02:44:06;76227.75;;;-147.36;100.00
55113;BME280;41006;50.920;3.456;2023-07-13T02:44:40;76231.81;;;-147.36;100.00
55113;BME280;41006;50.920;3.456;2023-07-13T02:45:15;76233.81;;;-147.36;100.00
55113;BME280;41006;50.920;3.456;2023-07-13T02:45:46;76245.94;;;-147.36;100.00
55113;BME280;41006;50.920;3.456;2023-07-13T02:46:16;76247.97;;;-147.36;100.00
55113;BME280;41006;50.920;3.456;2023-07-13T02:46:47;76247.97;;;-147.36;100.00
55113;BME280;41006;50.920;3.456;2023-07-13T02:47:19;76252.00;;;-147.36;100.00
55113;BME280;41006;50.920;3.456;2023-07-13T02:47:49;76243.91;;;-147.36;100.00
55113;BME280;41006;50.920;3.456;2023-07-13T02:48:22;76243.91;;;-147.36;100.00
55113;BME280;41006;50.920;3.456;2023-07-13T02:48:52;76249.97;;;-147.36;100.00
55113;BME280;41006;50.920;3.456;2023-07-13T02:49:23;76243.91;;;-147.36;100.00
55113;BME280;41006;50.920;3.456;2023-07-13T02:49:53;76247.97;;;-147.36;100.00
55113;BME280;41006;50.920;3.456;2023-07-13T02:50:24;76239.88;;;-147.36;100.00
55113;BME280;41006;50.920;3.456;2023-07-13T02:50:54;76243.91;;;-147.36;100.00
55113;BME280;41006;50.920;3.456;2023-07-13T02:51:29;76245.94;;;-147.36;100.00
55113;BME280;41006;50.920;3.456;2023-07-13T02:52:01;76237.88;;;-147.36;100.00